Time;durP1;ratioP1;P1;durP2;ratioP2;P2;SDS_P1;SDS_P2;PMS_P1;PMS_P2;Temp;Humidity;BMP_temperature;BMP_pressure;BME280_temperature;BME280_humidity;BME280_pressure;Samples;Min_cycle;Max_cycle;Signal;HPM_P1;HPM_P2
2021/11/02 00:01:14;;;;;;;10.88;3.60;;;;;;;-139.48;100.00;61774.03;5034506;28;20052;-71
2021/11/02 00:03:58;;;;;;;5.32;4.22;;;;;;;-139.48;100.00;61774.03;5034261;28;20052;-70
2021/11/02 00:06:42;;;;;;;4.72;3.75;;;;;;;-139.48;100.00;61774.03;5034393;28;20508;-71
2021/11/02 00:09:31;;;;;;;8.43;4.50;;;;;;;-139.48;100.00;61774.03;5034255;28;20529;-71
2021/11/02 00:12:15;;;;;;;8.50;4.22;;;;;;;-139.48;100.00;61774.03;5034021;28;20087;-70
2021/11/02 00:14:59;;;;;;;10.07;4.43;;;;;;;-139.48;100.00;61774.03;5018968;28;20128;-70
2021/11/02 00:17:43;;;;;;;8.50;4.32;;;;;;;-139.48;100.00;61774.03;5034218;28;20052;-71
2021/11/02 00:20:27;;;;;;;7.82;3.38;;;;;;;-139.48;100.00;61774.03;5033959;28;20180;-70
2021/11/02 00:23:11;;;;;;;7.82;3.78;;;;;;;-139.48;100.00;61774.03;5034029;28;20048;-71
2021/11/02 00:25:55;;;;;;;10.70;3.55;;;;;;;-139.48;100.00;61774.03;5034070;28;20107;-71
2021/11/02 00:28:40;;;;;;;5.03;3.47;;;;;;;-139.48;100.00;61774.03;5033874;28;20521;-71
2021/11/02 00:31:24;;;;;;;5.47;3.30;;;;;;;-139.48;100.00;61774.03;5018491;28;20140;-70
2021/11/02 00:34:08;;;;;;;7.47;2.83;;;;;;;-139.48;100.00;61774.03;5034183;28;20072;-71
2021/11/02 00:36:52;;;;;;;7.97;3.55;;;;;;;-139.48;100.00;61774.03;5033623;28;20051;-70
2021/11/02 00:39:36;;;;;;;6.20;3.50;;;;;;;-139.48;100.00;61774.03;5033770;28;20129;-71
2021/11/02 00:42:26;;;;;;;6.03;3.40;;;;;;;-139.48;100.00;61774.03;5019100;28;20103;-70
2021/11/02 00:45:12;;;;;;;8.23;3.30;;;;;;;-139.48;100.00;61774.03;5033676;28;20052;-70
2021/11/02 00:47:57;;;;;;;4.35;2.65;;;;;;;-139.48;100.00;61774.03;5018854;28;20510;-71
2021/11/02 00:50:44;;;;;;;5.45;3.35;;;;;;;-139.48;100.00;61774.03;5033391;28;20475;-70
2021/11/02 00:53:28;;;;;;;6.50;3.35;;;;;;;-139.48;100.00;61774.03;5033838;28;20107;-71
2021/11/02 00:56:12;;;;;;;7.75;4.05;;;;;;;-139.48;100.00;61774.03;5033844;28;20540;-71
2021/11/02 00:58:58;;;;;;;6.65;3.97;;;;;;;-139.48;100.00;61774.03;5033248;28;20091;-70
2021/11/02 01:01:42;;;;;;;8.65;4.30;;;;;;;-139.48;100.00;61774.03;5033472;28;20091;-70
2021/11/02 01:04:27;;;;;;;9.68;4.57;;;;;;;-139.48;100.00;61774.03;5033159;28;20056;-70
2021/11/02 01:07:11;;;;;;;7.70;4.43;;;;;;;-139.48;100.00;61774.03;5033191;28;20108;-70
2021/11/02 01:09:55;;;;;;;7.95;4.30;;;;;;;-139.48;100.00;61774.03;5033166;28;20533;-70
2021/11/02 01:12:39;;;;;;;7.90;5.07;;;;;;;-139.48;100.00;61774.03;5033294;28;20406;-70
2021/11/02 01:15:27;;;;;;;9.30;5.05;;;;;;;-139.48;100.00;61774.03;5033058;28;20457;-70
2021/11/02 01:18:11;;;;;;;8.40;4.95;;;;;;;-139.48;100.00;61774.03;5018285;28;20084;-70
2021/11/02 01:20:55;;;;;;;11.30;5.65;;;;;;;-139.48;100.00;61774.03;5033346;28;20056;-70
2021/11/02 01:23:39;;;;;;;10.80;5.43;;;;;;;-139.48;100.00;61774.03;5032959;28;20072;-70
2021/11/02 01:26:24;;;;;;;9.13;5.07;;;;;;;-139.48;100.00;61774.03;5018303;28;20517;-70
2021/11/02 01:29:08;;;;;;;9.10;5.10;;;;;;;-139.48;100.00;61774.03;5032912;28;20044;-70
2021/11/02 01:31:52;;;;;;;9.35;5.75;;;;;;;-139.48;100.00;61774.03;5032957;28;20108;-70
2021/11/02 01:34:36;;;;;;;12.43;6.40;;;;;;;-139.48;100.00;61774.03;5033192;28;20048;-70
2021/11/02 01:37:19;;;;;;;11.07;6.40;;;;;;;-139.48;100.00;61774.03;5033458;28;20091;-70
2021/11/02 01:40:04;;;;;;;9.57;5.82;;;;;;;-139.48;100.00;61774.03;5032839;28;20056;-69
2021/11/02 01:42:50;;;;;;;7.32;5.55;;;;;;;-139.48;100.00;61774.03;5033562;28;20426;-69
2021/11/02 01:45:34;;;;;;;10.68;5.85;;;;;;;-139.48;100.00;61774.03;5037068;28;20052;-70
2021/11/02 01:48:25;;;;;;;10.45;6.80;;;;;;;-139.48;100.00;61774.03;5073309;22;20103;-67
2021/11/02 01:51:09;;;;;;;14.88;6.47;;;;;;;-139.48;100.00;61774.03;5008172;28;20052;-67
2021/11/02 01:53:52;;;;;;;11.35;6.65;;;;;;;-139.48;100.00;61774.03;5036670;28;20045;-67
2021/11/02 01:56:37;;;;;;;13.55;5.97;;;;;;;-139.48;100.00;61774.03;5008190;28;20525;-68
2021/11/02 01:59:28;;;;;;;11.10;6.65;;;;;;;-139.48;100.00;61774.03;5022062;28;20052;-67
2021/11/02 02:02:25;;;;;;;11.43;6.00;;;;;;;-139.48;100.00;61774.03;5008987;28;20179;-68
2021/11/02 02:05:41;;;;;;;10.68;6.50;;;;;;;-139.48;100.00;61774.03;5021668;28;20053;-67
2021/11/02 02:08:34;;;;;;;10.40;6.28;;;;;;;-139.48;100.00;61774.03;5007459;28;20064;-67
2021/11/02 02:11:40;;;;;;;10.00;5.40;;;;;;;-139.48;100.00;61774.03;5022028;28;20445;-68
2021/11/02 02:14:34;;;;;;;8.95;5.20;;;;;;;-139.48;100.00;61774.03;5036565;28;20044;-67
2021/11/02 02:17:21;;;;;;;12.82;6.10;;;;;;;-139.48;100.00;61774.03;5021486;28;20099;-68
2021/11/02 02:20:23;;;;;;;9.85;5.47;;;;;;;-139.48;100.00;61774.03;5021886;28;20505;-67
2021/11/02 02:23:33;;;;;;;9.57;5.78;;;;;;;-139.48;100.00;61774.03;5021554;28;20095;-68
2021/11/02 02:26:56;;;;;;;13.60;6.40;;;;;;;-139.48;100.00;61774.03;5021458;28;20071;-68
2021/11/02 02:29:42;;;;;;;9.15;5.38;;;;;;;-139.48;100.00;61774.03;5036009;28;20144;-68
2021/11/02 02:32:27;;;;;;;10.48;5.75;;;;;;;-139.48;100.00;61774.03;5007605;28;20060;-68
2021/11/02 02:35:12;;;;;;;12.75;5.35;;;;;;;-139.48;100.00;61774.03;5021222;28;20048;-67
2021/11/02 02:37:57;;;;;;;13.40;4.97;;;;;;;-139.48;100.00;61774.03;5020977;28;20095;-68
2021/11/02 02:40:42;;;;;;;8.02;5.35;;;;;;;-139.48;100.00;61774.03;5020850;28;20103;-68
2021/11/02 02:43:26;;;;;;;8.25;4.75;;;;;;;-139.48;100.00;61774.03;5021002;28;20048;-67
2021/11/02 02:46:11;;;;;;;10.38;5.05;;;;;;;-139.48;100.00;61774.03;5020961;28;20048;-68
2021/11/02 02:48:56;;;;;;;14.35;5.50;;;;;;;-139.48;100.00;61774.03;5020558;28;20053;-68
2021/11/02 02:51:42;;;;;;;8.15;5.32;;;;;;;-139.48;100.00;61774.03;5020898;28;20099;-68
2021/11/02 02:54:27;;;;;;;14.25;4.80;;;;;;;-139.48;100.00;61774.03;5005777;28;20044;-68
2021/11/02 02:57:12;;;;;;;14.10;5.05;;;;;;;-139.48;100.00;61774.03;5020887;28;20091;-68
2021/11/02 02:59:57;;;;;;;9.82;4.80;;;;;;;-139.48;100.00;61774.03;5020685;28;20056;-68
2021/11/02 03:02:43;;;;;;;9.50;4.72;;;;;;;-139.48;100.00;61774.03;5020560;28;20092;-67
2021/11/02 03:05:28;;;;;;;8.68;4.95;;;;;;;-139.48;100.00;61774.03;5006833;28;20132;-68
2021/11/02 03:08:12;;;;;;;12.45;5.97;;;;;;;-139.48;100.00;61774.03;5020515;28;20053;-68
2021/11/02 03:10:57;;;;;;;9.25;4.93;;;;;;;-139.48;100.00;61774.03;5020597;28;20521;-67
2021/11/02 03:13:47;;;;;;;12.32;4.68;;;;;;;-139.48;100.00;61774.03;5020472;28;20091;-68
2021/11/02 03:20:01;;;;;;;;;;;;;;;;;;;;;
2021/11/02 03:44:09;;;;;;;7.85;4.43;;;;;;;-139.48;100.00;61774.03;5034516;28;20092;-66
2021/11/02 03:49:55;;;;;;;9.23;4.20;;;;;;;-139.48;100.00;61774.03;5020048;28;20051;-67
2021/11/02 03:56:07;;;;;;;5.90;3.85;;;;;;;8.04;100.00;99051.94;5022390;28;20402;-67
2021/11/02 04:21:58;;;;;;;9.57;3.90;;;;;;;8.07;100.00;99042.84;5021947;28;20063;-68
2021/11/02 05:08:58;;;;;;;10.48;4.47;;;;;;;7.43;100.00;99026.50;5021003;28;20110;-67
2021/11/02 05:49:10;;;;;;;14.38;5.05;;;;;;;7.17;100.00;99022.16;5020360;28;20410;-67
2021/11/02 05:55:11;;;;;;;6.70;4.15;;;;;;;7.37;100.00;99016.50;5019343;28;20123;-68
2021/11/02 06:29:04;;;;;;;4.13;3.42;;;;;;;6.43;100.00;99031.31;4999301;28;20044;-67
2021/11/02 06:32:33;;;;;;;6.60;4.18;;;;;;;6.39;100.00;99028.16;5021018;28;20044;-67
2021/11/02 06:35:11;;;;;;;8.40;4.47;;;;;;;6.38;100.00;99029.09;5024081;28;20513;-68
2021/11/02 06:56:52;;;;;;;7.15;4.82;;;;;;;6.65;100.00;99044.16;5020456;28;20051;-68
2021/11/02 07:15:31;;;;;;;9.25;5.60;;;;;;;7.03;100.00;99052.66;5023184;28;20112;-68
2021/11/02 07:18:21;;;;;;;6.13;4.18;;;;;;;7.12;100.00;99051.75;5023687;28;20052;-68
2021/11/02 07:21:13;;;;;;;9.95;5.38;;;;;;;7.18;100.00;99045.84;5021200;28;20133;-68
2021/11/02 07:24:12;;;;;;;5.80;4.45;;;;;;;7.27;100.00;99052.06;5021505;28;20564;-67
2021/11/02 07:27:11;;;;;;;6.72;4.78;;;;;;;7.34;100.00;99051.28;5022322;28;20449;-67
2021/11/02 08:47:37;;;;;;;11.45;7.60;;;;;;;9.76;100.00;99077.63;5001921;28;20096;-69
2021/11/02 08:50:21;;;;;;;10.65;6.18;;;;;;;9.82;100.00;99070.81;4999853;28;20414;-70
2021/11/02 08:53:07;;;;;;;10.20;6.57;;;;;;;9.87;100.00;99079.13;5013179;28;20509;-70
2021/11/02 08:55:51;;;;;;;16.85;8.32;;;;;;;9.94;100.00;99074.78;4999081;28;20053;-70
2021/11/02 08:58:35;;;;;;;12.45;6.50;;;;;;;9.99;100.00;99077.78;4998793;28;20100;-69
2021/11/02 09:01:22;;;;;;;12.88;5.65;;;;;;;10.01;100.00;99073.94;5014128;28;20100;-69
2021/11/02 09:04:09;;;;;;;7.82;5.47;;;;;;;10.02;100.00;99074.78;4998858;28;20180;-70
2021/11/02 09:06:53;;;;;;;8.10;4.95;;;;;;;9.93;100.00;99075.78;4998797;28;20131;-70
2021/11/02 09:09:40;;;;;;;9.70;4.88;;;;;;;9.85;100.00;99081.09;4985350;28;20153;-70
2021/11/02 09:12:29;;;;;;;7.07;4.50;;;;;;;9.85;100.00;99076.63;4999187;28;20123;-70
2021/11/02 09:15:13;;;;;;;6.22;4.30;;;;;;;9.83;100.00;99080.44;4998738;28;20100;-69
2021/11/02 09:17:58;;;;;;;6.95;3.97;;;;;;;9.85;100.00;99081.09;4998822;28;20056;-69
2021/11/02 09:20:42;;;;;;;5.93;3.85;;;;;;;9.72;100.00;99073.66;4998855;28;20134;-70
2021/11/02 09:23:26;;;;;;;5.15;3.75;;;;;;;9.72;100.00;99080.78;4998515;28;20115;-70
2021/11/02 09:26:10;;;;;;;6.38;4.07;;;;;;;9.59;100.00;99085.78;4998696;28;20052;-69
2021/11/02 09:28:54;;;;;;;;;;;;;;;9.57;100.00;99077.16;4998779;28;20411;-69
2021/11/02 09:31:40;;;;;;;6.68;3.95;;;;;;;9.48;100.00;99076.31;4998966;28;19919;-69
2021/11/02 09:34:25;;;;;;;6.55;4.00;;;;;;;9.46;100.00;99072.97;4998640;28;20176;-68
2021/11/02 09:37:17;;;;;;;8.00;4.20;;;;;;;9.40;100.00;99072.81;4998571;28;20179;-68
2021/11/02 09:40:10;;;;;;;7.80;4.18;;;;;;;9.34;100.00;99086.75;4998534;28;20052;-68
2021/11/02 09:43:05;;;;;;;6.88;3.88;;;;;;;9.27;100.00;99083.13;5013309;28;20104;-67
2021/11/02 09:46:37;;;;;;;8.73;3.60;;;;;;;9.30;100.00;99085.44;5013380;28;20084;-67
2021/11/02 09:49:41;;;;;;;7.43;3.25;;;;;;;9.25;100.00;99085.09;4979480;28;20064;-69
2021/11/02 09:52:28;;;;;;;8.10;3.33;;;;;;;9.26;100.00;99081.47;5012328;28;20480;-68
2021/11/02 09:55:27;;;;;;;8.15;3.80;;;;;;;9.24;100.00;99083.44;5013596;28;20091;-69
2021/11/02 09:58:49;;;;;;;6.18;3.05;;;;;;;9.25;100.00;99080.63;5012389;28;20045;-69
2021/11/02 10:01:44;;;;;;;4.05;2.42;;;;;;;9.28;100.00;99082.13;4998425;28;20088;-68
2021/11/02 10:04:48;;;;;;;6.40;2.58;;;;;;;9.36;100.00;99080.28;4985863;28;20473;-68
2021/11/02 10:07:51;;;;;;;3.60;2.50;;;;;;;9.41;100.00;99077.97;5016674;28;20045;-68
2021/11/02 10:10:44;;;;;;;7.57;3.45;;;;;;;9.56;100.00;99084.28;5015630;28;20108;-69
2021/11/02 10:13:38;;;;;;;5.55;3.15;;;;;;;9.74;100.00;99076.13;4988174;28;20045;-70
2021/11/02 10:16:32;;;;;;;3.28;2.25;;;;;;;9.71;100.00;99077.31;5015571;28;20080;-70
2021/11/02 10:19:47;;;;;;;4.27;2.07;;;;;;;9.62;100.00;99075.66;5001715;28;20111;-69
2021/11/02 10:23:10;;;;;;;4.35;2.28;;;;;;;9.69;100.00;99071.31;5001978;28;20301;-68
2021/11/02 10:26:14;;;;;;;2.70;1.83;;;;;;;9.86;100.00;99069.47;5001715;28;20065;-70
2021/11/02 10:29:29;;;;;;;4.93;3.28;;;;;;;9.77;100.00;99078.47;5001522;28;20180;-70
2021/11/02 10:32:14;;;;;;;6.78;2.13;;;;;;;9.85;100.00;99075.78;5016225;28;20084;-70
2021/11/02 10:35:19;;;;;;;3.50;1.90;;;;;;;9.87;100.00;99082.59;5001791;28;20088;-70
2021/11/02 10:38:17;;;;;;;3.03;1.45;;;;;;;9.72;100.00;99075.47;5016320;28;20454;-71
2021/11/02 10:41:05;;;;;;;4.30;2.10;;;;;;;9.80;100.00;99072.81;5001558;28;20103;-70
2021/11/02 10:44:01;;;;;;;2.38;1.85;;;;;;;9.78;100.00;99075.63;5001450;28;20089;-70
2021/11/02 10:47:03;;;;;;;5.03;2.20;;;;;;;9.93;100.00;99073.13;5001620;28;20088;-71
2021/11/02 10:50:09;;;;;;;2.53;1.92;;;;;;;9.99;100.00;99077.78;5000825;28;20068;-71
2021/11/02 10:52:57;;;;;;;3.55;1.77;;;;;;;10.14;100.00;99065.44;5001157;28;20096;-71
2021/11/02 10:56:08;;;;;;;3.35;1.52;;;;;;;10.40;100.00;99072.19;4987661;28;20044;-71
2021/11/02 10:58:56;;;;;;;2.38;1.50;;;;;;;10.40;100.00;99075.69;5001255;28;20168;-71
2021/11/02 11:01:42;;;;;;;4.20;2.15;;;;;;;10.53;100.00;99078.66;5000806;28;20044;-71
2021/11/02 11:04:32;;;;;;;3.33;1.60;;;;;;;10.44;100.00;99074.34;5000661;28;20068;-71
2021/11/02 11:07:17;;;;;;;2.55;1.63;;;;;;;10.09;100.00;99075.81;5000759;28;20044;-71
2021/11/02 11:10:03;;;;;;;2.20;1.50;;;;;;;9.89;100.00;99077.13;5001027;28;20049;-71
2021/11/02 11:12:55;;;;;;;3.55;1.58;;;;;;;9.87;100.00;99065.81;5000897;28;20510;-71
2021/11/02 11:15:40;;;;;;;2.08;1.30;;;;;;;9.76;100.00;99071.47;5000023;28;20517;-72
2021/11/02 11:18:31;;;;;;;1.50;1.27;;;;;;;9.82;100.00;99076.97;4986868;28;20053;-71
2021/11/02 11:21:16;;;;;;;5.07;1.35;;;;;;;9.73;100.00;99074.47;5001021;28;20056;-70
2021/11/02 11:24:18;;;;;;;3.08;1.27;;;;;;;9.79;100.00;99077.28;5000544;28;20052;-70
2021/11/02 11:27:09;;;;;;;2.33;1.40;;;;;;;10.13;100.00;99077.09;5000645;28;20048;-70
2021/11/02 11:29:59;;;;;;;2.83;1.45;;;;;;;10.34;100.00;99073.72;5000302;28;20045;-70
2021/11/02 11:32:46;;;;;;;2.08;1.50;;;;;;;10.44;100.00;99068.19;5000686;28;20053;-71
2021/11/02 11:35:34;;;;;;;2.17;1.65;;;;;;;10.70;100.00;99074.91;5015311;28;20411;-70
2021/11/02 11:38:19;;;;;;;1.92;1.23;;;;;;;10.58;100.00;99065.66;5000434;28;20068;-71
2021/11/02 11:41:05;;;;;;;3.55;1.15;;;;;;;10.54;100.00;99071.50;4986721;28;20411;-71
2021/11/02 11:43:49;;;;;;;2.65;1.55;;;;;;;10.55;100.00;99071.31;4986697;28;20045;-70
2021/11/02 11:46:34;;;;;;;1.85;1.17;;;;;;;10.34;100.00;99073.72;4999997;28;20056;-70
2021/11/02 11:49:25;;;;;;;1.45;1.23;;;;;;;10.30;100.00;99061.75;4999937;28;20052;-71
2021/11/02 11:52:10;;;;;;;4.85;1.65;;;;;;;10.72;100.00;99064.06;5014713;28;20049;-70
2021/11/02 11:54:56;;;;;;;2.53;1.70;;;;;;;11.85;100.00;99063.13;4999891;28;20088;-70
2021/11/02 11:57:39;;;;;;;1.08;0.93;;;;;;;11.80;100.00;99068.16;4986557;28;20104;-71
2021/11/02 12:00:25;;;;;;;4.15;1.42;;;;;;;11.66;100.00;99052.97;4999966;28;20053;-70
2021/11/02 12:03:28;;;;;;;0.80;0.80;;;;;;;11.35;100.00;99060.19;4999611;28;20145;-71
2021/11/02 12:06:21;;;;;;;2.35;1.05;;;;;;;11.20;100.00;99053.97;5013645;28;20049;-70
2021/11/02 12:09:20;;;;;;;1.87;1.20;;;;;;;11.00;100.00;99044.75;4999722;28;20573;-70
2021/11/02 12:12:04;;;;;;;2.58;0.98;;;;;;;10.64;100.00;99070.28;4999902;28;20144;-70
2021/11/02 12:14:55;;;;;;;3.10;1.15;;;;;;;10.65;100.00;99050.59;4999848;28;20105;-70
2021/11/02 12:17:41;;;;;;;0.68;0.68;;;;;;;10.80;100.00;99054.22;4999538;28;20411;-70
2021/11/02 12:20:28;;;;;;;0.82;0.73;;;;;;;11.13;100.00;99047.66;4985858;28;20518;-70
2021/11/02 12:23:16;;;;;;;2.10;1.00;;;;;;;12.23;100.00;99026.50;4999727;28;20522;-70
2021/11/02 12:26:01;;;;;;;1.00;0.85;;;;;;;12.75;100.00;111149.69;5013084;28;20056;-70
2021/11/02 12:28:47;;;;;;;1.00;0.90;;;;;;;12.75;nan;32937.09;4999582;28;20558;-70
2021/11/02 12:31:31;;;;;;;0.98;0.80;;;;;;;13.11;97.53;99026.19;4999453;28;20047;-71
2021/11/02 12:34:15;;;;;;;2.50;1.20;;;;;;;13.19;96.12;99023.41;5013955;28;20049;-71
2021/11/02 12:36:59;;;;;;;1.75;1.27;;;;;;;12.74;98.29;99029.06;4999346;28;20053;-70
2021/11/02 12:39:44;;;;;;;2.42;1.10;;;;;;;12.79;100.00;-7246.31;4999503;28;20088;-70
2021/11/02 12:42:36;;;;;;;1.23;1.13;;;;;;;;;;5013902;28;20582;-70
2021/11/02 12:45:24;;;;;;;1.63;1.20;;;;;;;-139.48;100.00;61774.03;5013785;28;20053;-70
2021/11/02 12:48:10;;;;;;;3.53;1.75;;;;;;;-139.48;100.00;61774.03;4985444;28;20135;-70
2021/11/02 12:50:55;;;;;;;1.80;1.42;;;;;;;-139.48;100.00;61774.03;4999114;28;20131;-69
2021/11/02 12:53:42;;;;;;;2.10;1.30;;;;;;;-139.48;100.00;61774.03;4985358;28;20103;-70
2021/11/02 12:56:42;;;;;;;1.90;1.27;;;;;;;-139.48;100.00;61774.03;4999046;28;20064;-70
2021/11/02 13:00:04;;;;;;;2.38;1.23;;;;;;;-139.48;100.00;61774.03;4985008;28;20136;-70
2021/11/02 13:02:55;;;;;;;2.90;1.40;;;;;;;-139.48;100.00;61774.03;5014139;28;20549;-70
2021/11/02 13:05:40;;;;;;;2.83;1.70;;;;;;;-139.48;100.00;61774.03;5012526;28;20149;-70
2021/11/02 13:08:53;;;;;;;3.45;1.35;;;;;;;-139.48;100.00;61774.03;4998783;28;20054;-70
2021/11/02 13:11:38;;;;;;;1.08;1.00;;;;;;;-139.48;100.00;61774.03;4998595;28;20049;-70
2021/11/02 13:14:35;;;;;;;1.20;1.10;;;;;;;-139.48;100.00;61774.03;4985431;28;20041;-70
2021/11/02 13:17:24;;;;;;;2.08;1.38;;;;;;;-139.48;100.00;61774.03;4998812;28;20045;-70
2021/11/02 13:20:10;;;;;;;1.60;1.10;;;;;;;-139.48;100.00;61774.03;4998612;28;20061;-70
2021/11/02 13:22:54;;;;;;;0.82;0.82;;;;;;;-139.48;100.00;61774.03;4985036;28;20092;-70
2021/11/02 13:25:40;;;;;;;1.05;0.70;;;;;;;-139.48;100.00;61774.03;4999038;28;20096;-70
2021/11/02 13:28:30;;;;;;;1.30;0.80;;;;;;;-139.48;100.00;61774.03;4984821;28;20561;-70
2021/11/02 13:31:44;;;;;;;1.33;0.80;;;;;;;-139.48;100.00;61774.03;4998795;28;20048;-70
2021/11/02 13:34:38;;;;;;;0.70;0.70;;;;;;;-139.48;100.00;61774.03;4990502;28;20088;-70
2021/11/02 13:37:24;;;;;;;1.63;0.70;;;;;;;-139.48;100.00;61774.03;5013450;28;20114;-71
2021/11/02 13:40:08;;;;;;;1.13;1.02;;;;;;;-139.48;100.00;61774.03;5000984;28;20402;-70
2021/11/02 13:42:52;;;;;;;1.25;0.85;;;;;;;-139.48;100.00;61774.03;5017430;28;20497;-70
2021/11/02 13:45:36;;;;;;;2.65;0.95;;;;;;;-139.48;100.00;61774.03;5002248;28;20044;-70
2021/11/02 13:48:21;;;;;;;4.80;0.80;;;;;;;-139.48;100.00;61774.03;5002189;28;20506;-70
2021/11/02 13:51:08;;;;;;;1.98;0.85;;;;;;;-139.48;100.00;61774.03;5002072;28;20053;-70
2021/11/02 13:53:53;;;;;;;0.82;0.68;;;;;;;-139.48;100.00;61774.03;5002534;28;20092;-70
2021/11/02 13:56:39;;;;;;;2.63;0.90;;;;;;;-139.48;100.00;61774.03;4988738;28;20510;-70
2021/11/02 13:59:23;;;;;;;2.03;0.70;;;;;;;-139.48;100.00;61774.03;5017011;28;20053;-70
2021/11/02 14:02:08;;;;;;;4.05;1.00;;;;;;;-139.48;100.00;61774.03;5002249;28;20049;-67
2021/11/02 14:04:52;;;;;;;0.45;0.43;;;;;;;-139.48;100.00;61774.03;5016953;28;20053;-67
2021/11/02 14:07:37;;;;;;;1.20;0.57;;;;;;;-139.48;100.00;61774.03;5016638;28;20141;-67
2021/11/02 14:10:27;;;;;;;2.72;0.57;;;;;;;-139.48;100.00;61774.03;5001994;28;20057;-67
2021/11/02 14:13:13;;;;;;;0.75;0.63;;;;;;;-139.48;100.00;61774.03;5001796;28;20470;-67
2021/11/02 14:16:00;;;;;;;2.10;0.50;;;;;;;-139.48;100.00;61774.03;5001692;28;20060;-69
2021/11/02 14:18:44;;;;;;;2.20;0.57;;;;;;;-139.48;100.00;61774.03;5001635;28;20581;-70
2021/11/02 14:21:48;;;;;;;0.70;0.43;;;;;;;-139.48;100.00;61774.03;4990336;28;20522;-70
2021/11/02 14:24:44;;;;;;;1.05;0.40;;;;;;;-139.48;100.00;61774.03;5001781;28;20095;-70
2021/11/02 14:27:43;;;;;;;2.17;0.60;;;;;;;-139.48;100.00;61774.03;5001928;28;20112;-68
2021/11/02 14:30:44;;;;;;;0.68;0.47;;;;;;;-139.48;100.00;61774.03;5001687;28;20509;-70
2021/11/02 14:33:44;;;;;;;1.83;0.50;;;;;;;-139.48;100.00;61774.03;5001594;28;20045;-70
2021/11/02 14:36:39;;;;;;;1.23;0.50;;;;;;;-139.48;100.00;61774.03;4987704;28;20080;-70
2021/11/02 14:39:53;;;;;;;0.60;0.60;;;;;;;-139.48;100.00;61774.03;5001470;28;20506;-70
2021/11/02 14:42:43;;;;;;;0.73;0.73;;;;;;;-139.48;100.00;61774.03;5001494;28;20478;-69
2021/11/02 14:45:39;;;;;;;2.40;0.60;;;;;;;-139.48;100.00;61774.03;5016190;28;20278;-68
2021/11/02 14:48:32;;;;;;;0.85;0.60;;;;;;;14.89;nan;99074.56;5000905;28;20076;-70
2021/11/02 14:51:22;;;;;;;0.93;0.50;;;;;;;9.32;nan;99091.41;5014681;28;20073;-70
2021/11/02 14:54:43;;;;;;;0.90;0.63;;;;;;;9.29;nan;99084.59;5016093;28;20068;-69
2021/11/02 14:57:27;;;;;;;5.55;0.80;;;;;;;9.17;nan;99091.22;4983615;28;20410;-69
2021/11/02 15:00:11;;;;;;;0.70;0.70;;;;;;;9.30;nan;99082.78;5015642;28;20099;-70
2021/11/02 15:02:55;;;;;;;1.92;0.80;;;;;;;9.35;nan;99088.41;5000940;28;20053;-71
2021/11/02 15:05:39;;;;;;;2.35;0.70;;;;;;;9.43;nan;99085.78;5000992;28;20100;-70
2021/11/02 15:08:23;;;;;;;0.43;0.40;;;;;;;9.53;nan;99089.09;4987327;28;20157;-71
2021/11/02 15:11:13;;;;;;;0.90;0.77;;;;;;;9.66;nan;99076.13;4987124;28;20052;-70
2021/11/02 15:14:00;;;;;;;0.70;0.63;;;;;;;9.78;nan;99086.28;5000802;28;20113;-70
2021/11/02 15:16:47;;;;;;;0.57;0.57;;;;;;;9.85;nan;99086.44;4987057;28;20160;-71
2021/11/02 15:19:35;;;;;;;0.50;0.50;;;;;;;9.92;nan;99087.44;5015533;28;20423;-69
2021/11/02 15:22:21;;;;;;;0.93;0.60;;;;;;;9.83;nan;99080.44;5000571;28;20045;-68
2021/11/02 15:25:11;;;;;;;1.42;0.60;;;;;;;9.91;nan;99091.09;5000516;28;20116;-69
2021/11/02 15:28:00;;;;;;;4.40;0.80;;;;;;;10.05;nan;99082.44;5001131;28;20086;-69
2021/11/02 15:30:49;;;;;;;1.70;0.60;;;;;;;10.01;nan;99091.75;5000746;28;20135;-69
2021/11/02 15:33:34;;;;;;;2.58;0.90;;;;;;;10.14;nan;99082.28;5001149;28;20402;-69
2021/11/02 15:36:21;;;;;;;1.20;0.68;;;;;;;10.11;nan;99100.41;5000367;28;20095;-68
2021/11/02 15:39:07;;;;;;;1.40;0.65;;;;;;;10.13;nan;99090.41;4999946;28;20103;-69
2021/11/02 15:41:51;;;;;;;0.70;0.60;;;;;;;10.02;nan;99104.94;4986653;28;20127;-68
2021/11/02 15:44:35;;;;;;;0.73;0.68;;;;;;;10.03;nan;99105.75;5000269;28;20473;-68
2021/11/02 15:47:19;;;;;;;0.77;0.70;;;;;;;10.11;nan;99100.41;5000076;28;20045;-70
2021/11/02 15:50:08;;;;;;;3.08;0.60;;;;;;;10.04;nan;99107.41;4999636;28;20053;-70
2021/11/02 15:53:00;;;;;;;2.92;0.90;;;;;;;10.05;nan;99117.06;5000489;28;20056;-70
2021/11/02 15:55:43;;;;;;;1.17;0.70;;;;;;;10.10;nan;99112.06;4999975;28;20102;-67
2021/11/02 15:58:28;;;;;;;7.00;1.50;;;;;;;10.16;nan;99114.88;4999599;28;20129;-69
2021/11/02 16:01:12;;;;;;;1.77;0.70;;;;;;;10.05;nan;99119.72;4999952;28;20048;-70
2021/11/02 16:04:14;;;;;;;2.88;1.08;;;;;;;10.09;nan;99115.75;4999795;28;20053;-69
2021/11/02 16:07:02;;;;;;;1.85;0.95;;;;;;;9.87;nan;99117.22;4999755;28;20048;-70
2021/11/02 16:09:54;;;;;;;0.63;0.63;;;;;;;9.76;nan;99119.38;4985746;28;20049;-68
2021/11/02 16:12:40;;;;;;;2.45;1.30;;;;;;;9.86;nan;99118.22;4985874;28;20535;-69
2021/11/02 16:15:28;;;;;;;1.67;1.00;;;;;;;9.78;nan;99118.22;4999827;28;20137;-68
2021/11/02 16:18:18;;;;;;;1.27;1.00;;;;;;;9.71;nan;99117.22;4999853;28;20103;-70
2021/11/02 16:21:04;;;;;;;3.05;1.20;;;;;;;9.82;nan;99124.03;4999480;28;20079;-69
2021/11/02 16:23:49;;;;;;;1.63;1.17;;;;;;;9.91;nan;99123.03;4999500;28;20095;-70
2021/11/02 16:26:37;;;;;;;3.25;1.30;;;;;;;10.04;nan;99121.56;4999644;28;20048;-70
2021/11/02 16:29:28;;;;;;;2.35;0.80;;;;;;;10.02;nan;99120.91;4999339;28;20084;-70
2021/11/02 16:32:39;;;;;;;2.25;1.10;;;;;;;9.97;nan;99127.69;4999456;28;20136;-70
2021/11/02 16:35:43;;;;;;;0.77;0.70;;;;;;;9.88;nan;99120.72;5014220;28;20563;-70
2021/11/02 16:38:37;;;;;;;2.92;1.00;;;;;;;9.99;nan;99115.88;5014146;28;20050;-70
2021/11/02 16:41:22;;;;;;;1.80;0.93;;;;;;;10.07;nan;99112.38;4999595;28;20045;-69
2021/11/02 16:44:09;;;;;;;1.77;0.98;;;;;;;10.07;nan;99115.06;4985225;28;20041;-69
2021/11/02 16:47:03;;;;;;;2.47;1.00;;;;;;;10.12;nan;99118.91;4985413;28;20084;-69
2021/11/02 16:49:47;;;;;;;2.10;1.10;;;;;;;10.05;nan;99120.56;4998847;28;20053;-67
2021/11/02 16:52:31;;;;;;;1.42;1.15;;;;;;;10.12;nan;99126.03;4999128;28;20049;-69
2021/11/02 16:55:15;;;;;;;2.83;1.13;;;;;;;10.14;nan;99130.22;5013655;28;20571;-69
2021/11/02 16:58:12;;;;;;;;;;;;;;;10.27;nan;99130.50;4999475;28;20407;-69
2021/11/02 17:01:24;;;;;;;5.78;1.40;;;;;;;10.16;nan;99135.34;5012939;28;19968;-67
2021/11/02 17:04:13;;;;;;;1.83;1.10;;;;;;;10.17;nan;99131.69;4998661;28;20053;-69
2021/11/02 17:07:09;;;;;;;1.00;0.88;;;;;;;10.21;nan;99131.16;4999313;28;20153;-69
2021/11/02 17:09:53;;;;;;;2.08;1.13;;;;;;;10.23;nan;99140.66;4998699;28;20517;-68
2021/11/02 17:12:39;;;;;;;1.90;1.20;;;;;;;10.31;nan;99131.81;4998832;28;20068;-70
2021/11/02 17:15:57;;;;;;;2.35;1.30;;;;;;;10.44;nan;99122.31;4998105;28;20040;-69
2021/11/02 17:18:52;;;;;;;2.95;2.65;;;;;;;10.53;nan;99128.47;5013515;28;20123;-69
2021/11/02 17:21:38;;;;;;;8.00;1.70;;;;;;;10.41;nan;99127.97;5013643;28;20068;-68
2021/11/02 17:24:22;;;;;;;3.50;1.30;;;;;;;10.25;nan;99133.31;4998711;28;20041;-69
2021/11/02 17:27:07;;;;;;;1.23;0.90;;;;;;;10.16;nan;99136.19;4998625;28;20119;-68
2021/11/02 17:29:52;;;;;;;1.35;0.80;;;;;;;10.22;nan;99143.50;5013290;28;20107;-68
2021/11/02 17:32:36;;;;;;;2.08;1.08;;;;;;;10.28;nan;99142.81;4998670;28;20514;-69
2021/11/02 17:35:20;;;;;;;2.97;1.95;;;;;;;10.50;nan;99153.59;5013342;28;20061;-69
2021/11/02 17:38:05;;;;;;;4.00;2.88;;;;;;;10.45;nan;99149.78;4998539;28;20052;-70
2021/11/02 17:40:49;;;;;;;4.45;3.13;;;;;;;10.45;nan;99150.59;4998302;28;20081;-69
2021/11/02 17:43:35;;;;;;;4.68;2.88;;;;;;;10.33;nan;99157.28;4998368;28;20053;-69
2021/11/02 17:46:20;;;;;;;4.40;2.70;;;;;;;10.50;nan;99158.94;4998905;28;20052;-69
2021/11/02 17:49:05;;;;;;;3.10;2.50;;;;;;;10.52;nan;99158.75;4998584;28;20112;-69
2021/11/02 17:51:49;;;;;;;5.05;2.47;;;;;;;10.49;nan;99162.59;4998211;28;20052;-69
2021/11/02 17:54:34;;;;;;;3.40;2.65;;;;;;;10.52;nan;99177.41;4998223;28;20099;-69
2021/11/02 17:57:18;;;;;;;5.00;2.58;;;;;;;10.66;nan;99185.53;4998311;28;20415;-68